Time;durP1;ratioP1;P1;durP2;ratioP2;P2;SDS_P1;SDS_P2;PMS_P1;PMS_P2;Temp;Humidity;BMP_temperature;BMP_pressure;BME280_temperature;BME280_humidity;BME280_pressure;Samples;Min_cycle;Max_cycle;Signal;HPM_P1;HPM_P2
2022/04/28 00:00:24;;;;;;;24.38;9.35;;;;;;;6.59;91.53;102701.66;5105056;28;20363;-64
2022/04/28 00:02:49;;;;;;;23.75;9.35;;;;;;;6.61;92.38;102709.59;5105922;28;20063;-64
2022/04/28 00:05:15;;;;;;;22.48;9.70;;;;;;;6.62;93.39;102701.78;5105770;28;20040;-64
2022/04/28 00:07:41;;;;;;;24.27;9.45;;;;;;;6.65;92.26;102705.41;5104596;28;20379;-65
2022/04/28 00:10:08;;;;;;;23.63;9.95;;;;;;;6.60;93.20;102713.97;5107269;28;20382;-65
2022/04/28 00:12:33;;;;;;;23.00;9.52;;;;;;;6.56;93.36;102705.84;5103944;28;20383;-63
2022/04/28 00:14:59;;;;;;;23.70;10.02;;;;;;;6.44;93.77;102722.78;5106988;28;20027;-65
2022/04/28 00:17:24;;;;;;;22.77;9.63;;;;;;;6.47;93.79;102721.16;5104197;28;20039;-64
2022/04/28 00:19:49;;;;;;;24.20;9.57;;;;;;;6.36;94.49;102717.97;5106046;28;20436;-64
2022/04/28 00:22:16;;;;;;;25.35;9.85;;;;;;;6.27;96.52;102719.28;5105866;28;20101;-63
2022/04/28 00:24:42;;;;;;;23.65;9.25;;;;;;;6.30;96.67;102713.31;5104634;28;20390;-63
2022/04/28 00:27:08;;;;;;;24.08;10.07;;;;;;;6.16;97.09;102722.19;5106985;28;20027;-63
2022/04/28 00:29:34;;;;;;;23.45;10.00;;;;;;;6.13;98.58;102720.31;5103352;28;20032;-63
2022/04/28 00:32:00;;;;;;;23.52;9.70;;;;;;;5.91;99.54;102718.22;5106582;28;20024;-62
2022/04/28 00:34:25;;;;;;;26.58;9.90;;;;;;;5.98;100.00;102717.78;5104023;28;20036;-63
2022/04/28 00:36:51;;;;;;;23.27;10.07;;;;;;;5.99;100.00;102710.81;5105649;28;20442;-63
2022/04/28 00:39:16;;;;;;;23.15;9.75;;;;;;;5.97;100.00;102720.28;5105163;28;20386;-64
2022/04/28 00:41:42;;;;;;;23.75;10.25;;;;;;;5.96;100.00;102713.25;5104418;28;20451;-63
2022/04/28 00:44:10;;;;;;;23.75;10.18;;;;;;;5.90;100.00;102716.44;5106136;28;20035;-64
2022/04/28 00:46:36;;;;;;;23.35;9.80;;;;;;;5.79;100.00;102707.97;5103020;28;20028;-63
2022/04/28 00:51:45;;;;;;;23.83;10.60;;;;;;;5.76;100.00;102715.69;5104522;28;20123;-63
2022/04/28 00:54:11;;;;;;;24.70;10.57;;;;;;;5.86;100.00;102715.38;5105834;28;20467;-64
2022/04/28 00:56:36;;;;;;;22.80;10.23;;;;;;;5.96;100.00;102706.25;5103171;28;20028;-64
2022/04/28 00:59:02;;;;;;;26.13;10.48;;;;;;;5.91;100.00;102708.66;5106338;27;20042;-63
2022/04/28 01:01:32;;;;;;;24.08;10.60;;;;;;;5.79;100.00;102707.09;5103002;28;20030;-63
2022/04/28 01:03:58;;;;;;;24.25;10.50;;;;;;;5.81;100.00;102706.34;5106123;28;20386;-63
2022/04/28 01:06:24;;;;;;;23.35;10.10;;;;;;;5.75;100.00;102709.56;5103554;28;20130;-63
2022/04/28 01:08:49;;;;;;;25.40;10.52;;;;;;;5.75;100.00;102698.13;5104515;28;20060;-63
2022/04/28 01:11:19;;;;;;;26.25;10.75;;;;;;;5.74;100.00;102704.22;5104867;28;20028;-63
2022/04/28 01:13:45;;;;;;;23.63;10.30;;;;;;;5.67;100.00;102708.22;5103616;28;20042;-64
2022/04/28 01:16:13;;;;;;;23.77;10.32;;;;;;;5.73;100.00;102707.66;5105071;27;20035;-64
2022/04/28 01:18:39;;;;;;;23.88;10.43;;;;;;;5.64;100.00;102702.81;5101268;28;20089;-63
2022/04/28 01:21:06;;;;;;;26.33;10.52;;;;;;;5.53;100.00;102704.88;5106290;28;20042;-63
2022/04/28 01:23:32;;;;;;;23.95;10.38;;;;;;;5.50;100.00;102711.66;5102286;28;20535;-63
2022/04/28 01:25:59;;;;;;;24.50;10.27;;;;;;;5.52;100.00;102716.16;5105539;28;20045;-63
2022/04/28 01:28:26;;;;;;;24.40;10.60;;;;;;;5.54;100.00;102714.53;5103424;28;20016;-63
2022/04/28 01:30:52;;;;;;;23.85;10.50;;;;;;;5.65;100.00;102709.88;5104355;28;20023;-63
2022/04/28 01:33:17;;;;;;;25.98;11.25;;;;;;;5.63;100.00;102710.59;5104283;28;20019;-63
2022/04/28 01:35:42;;;;;;;25.00;11.20;;;;;;;5.50;100.00;102715.16;5103202;28;20466;-63
2022/04/28 01:38:08;;;;;;;23.58;10.70;;;;;;;5.44;100.00;102714.84;5103953;28;20080;-63
2022/04/28 01:40:33;;;;;;;24.60;11.10;;;;;;;5.29;100.00;102716.63;5102478;28;20016;-63
2022/04/28 01:42:58;;;;;;;24.40;10.93;;;;;;;5.24;100.00;102713.72;5104126;28;20439;-63
2022/04/28 01:45:24;;;;;;;25.67;10.90;;;;;;;5.23;100.00;102719.81;5102661;28;20039;-63
2022/04/28 01:47:49;;;;;;;24.30;11.07;;;;;;;5.23;100.00;102720.69;5103830;28;20026;-63
2022/04/28 01:50:14;;;;;;;23.92;10.88;;;;;;;5.26;100.00;102705.94;5104046;28;20024;-63
2022/04/28 01:55:23;;;;;;;25.17;11.27;;;;;;;5.14;100.00;102704.47;5103067;28;20054;-63
2022/04/28 01:57:49;;;;;;;24.73;11.18;;;;;;;5.16;100.00;102705.44;5102570;28;20553;-63
2022/04/28 02:00:15;;;;;;;27.33;11.65;;;;;;;5.04;100.00;102710.91;5104155;28;20030;-63
2022/04/28 02:02:41;;;;;;;25.30;11.18;;;;;;;5.05;100.00;102711.78;5102514;28;20351;-63
2022/04/28 02:05:07;;;;;;;24.58;11.85;;;;;;;5.11;100.00;102725.28;5105479;27;20056;-63
2022/04/28 02:07:34;;;;;;;24.90;11.90;;;;;;;5.07;100.00;102713.69;5101600;28;20028;-63
2022/04/28 02:10:00;;;;;;;27.65;11.68;;;;;;;5.13;100.00;102713.13;5104915;28;20107;-63
2022/04/28 02:12:26;;;;;;;25.20;11.27;;;;;;;5.13;100.00;102720.09;5101437;28;20043;-63
2022/04/28 02:14:52;;;;;;;25.63;11.75;;;;;;;5.13;100.00;102722.72;5103409;28;20024;-63
2022/04/28 02:17:23;;;;;;;25.27;11.65;;;;;;;5.12;100.00;102713.94;5103385;28;20148;-63
2022/04/28 02:19:49;;;;;;;25.52;11.23;;;;;;;5.07;100.00;102720.66;5103547;28;20020;-63
2022/04/28 02:22:15;;;;;;;25.13;11.63;;;;;;;5.04;100.00;102724.00;5103526;28;20024;-63
2022/04/28 02:24:41;;;;;;;26.23;11.50;;;;;;;5.00;100.00;102723.75;5101947;28;20028;-63
2022/04/28 02:27:06;;;;;;;24.88;11.70;;;;;;;4.96;100.00;102721.75;5105020;28;20470;-63
2022/04/28 02:29:32;;;;;;;24.13;11.85;;;;;;;4.96;100.00;102724.38;5101081;28;20030;-63
2022/04/28 02:31:58;;;;;;;25.02;12.07;;;;;;;4.93;100.00;102719.84;5104314;28;20031;-63
2022/04/28 02:34:23;;;;;;;25.30;11.80;;;;;;;4.89;100.00;102720.50;5100778;28;20047;-63
2022/04/28 02:36:49;;;;;;;25.30;12.50;;;;;;;4.87;100.00;102723.03;5103173;28;20020;-64
2022/04/28 02:39:14;;;;;;;25.70;11.85;;;;;;;4.88;100.00;102721.31;5104873;28;20023;-63
2022/04/28 02:41:41;;;;;;;26.40;12.23;;;;;;;4.76;100.00;102720.59;5102413;28;20023;-63
2022/04/28 02:44:07;;;;;;;27.13;12.18;;;;;;;4.75;100.00;102713.53;5101627;28;20048;-63
2022/04/28 02:46:33;;;;;;;25.73;12.15;;;;;;;4.77;100.00;102714.56;5103568;28;20040;-63
2022/04/28 02:48:58;;;;;;;25.38;11.63;;;;;;;4.73;100.00;102713.47;5102849;28;20019;-62
2022/04/28 02:51:24;;;;;;;26.50;12.30;;;;;;;4.68;100.00;102707.06;5102277;28;20471;-63
2022/04/28 02:53:49;;;;;;;26.17;12.23;;;;;;;4.62;100.00;102722.44;5104323;28;20023;-63
2022/04/28 02:56:15;;;;;;;27.27;12.00;;;;;;;4.62;100.00;102715.47;5100982;28;20407;-63
2022/04/28 02:58:40;;;;;;;26.20;11.88;;;;;;;4.52;100.00;102715.75;5104488;28;20022;-62
2022/04/28 03:01:05;;;;;;;26.38;12.45;;;;;;;4.43;100.00;102716.09;5101552;28;20501;-63
2022/04/28 03:03:31;;;;;;;26.92;12.80;;;;;;;4.41;100.00;102716.81;5103084;28;20059;-62
2022/04/28 03:11:25;;;;;;;27.10;12.85;;;;;;;4.40;100.00;102712.38;5102627;28;20055;-62
2022/04/28 03:13:50;;;;;;;25.48;12.73;;;;;;;4.25;100.00;102713.31;5103930;28;20466;-63
2022/04/28 03:16:16;;;;;;;27.40;12.93;;;;;;;4.29;100.00;102715.25;5100982;28;20378;-62
2022/04/28 03:18:41;;;;;;;25.08;12.82;;;;;;;4.29;100.00;102717.00;5103602;28;20470;-62
2022/04/28 03:21:08;;;;;;;27.92;13.18;;;;;;;4.26;100.00;102720.31;5101331;28;20043;-62
2022/04/28 03:23:33;;;;;;;27.30;12.77;;;;;;;4.22;100.00;102720.06;5103212;28;20038;-63
2022/04/28 03:25:58;;;;;;;28.10;13.05;;;;;;;4.19;100.00;102719.06;5102558;28;20023;-63
2022/04/28 03:28:24;;;;;;;28.35;13.10;;;;;;;4.23;100.00;102716.63;5101975;28;20027;-63
2022/04/28 03:30:49;;;;;;;26.40;12.90;;;;;;;4.17;100.00;102719.78;5103544;28;20019;-63
2022/04/28 03:33:16;;;;;;;27.20;13.02;;;;;;;4.07;100.00;102715.69;5100986;28;20024;-63
2022/04/28 03:35:42;;;;;;;27.90;13.02;;;;;;;4.05;100.00;102717.31;5100657;28;20043;-62
2022/04/28 03:38:14;;;;;;;26.95;13.15;;;;;;;4.04;100.00;102715.50;5103982;28;20046;-63
2022/04/28 03:40:41;;;;;;;28.73;13.97;;;;;;;4.04;100.00;102725.97;5100823;28;20028;-63
2022/04/28 03:43:06;;;;;;;27.17;13.15;;;;;;;4.12;100.00;102719.50;5107024;28;20039;-63
2022/04/28 03:45:33;;;;;;;28.63;13.95;;;;;;;4.08;100.00;102716.59;5105401;28;20042;-63
2022/04/28 03:47:59;;;;;;;27.42;13.43;;;;;;;4.01;100.00;102715.34;5104496;28;20026;-63
2022/04/28 03:50:28;;;;;;;26.83;13.38;;;;;;;4.05;100.00;102719.94;5107949;28;20019;-63
2022/04/28 03:52:54;;;;;;;28.63;13.80;;;;;;;4.01;100.00;102724.06;5104255;28;20064;-64
2022/04/28 03:55:19;;;;;;;26.90;14.02;;;;;;;3.88;100.00;102728.47;5107447;28;20525;-63
2022/04/28 03:57:45;;;;;;;28.38;13.20;;;;;;;3.88;100.00;102732.00;5103731;28;20085;-62
2022/04/28 04:00:11;;;;;;;28.33;14.25;;;;;;;3.79;100.00;102726.19;5105310;28;20027;-63
2022/04/28 04:02:36;;;;;;;28.73;13.80;;;;;;;3.76;100.00;102732.13;5105506;28;20081;-63
2022/04/28 04:05:02;;;;;;;28.83;13.90;;;;;;;3.74;100.00;102736.38;5106472;28;20443;-63
2022/04/28 04:07:31;;;;;;;28.23;13.73;;;;;;;3.76;100.00;102736.47;5104195;28;20024;-63
2022/04/28 04:09:57;;;;;;;28.40;14.70;;;;;;;3.83;100.00;102734.31;5107236;28;20366;-63
2022/04/28 04:12:23;;;;;;;28.65;14.52;;;;;;;3.79;100.00;102734.94;5100697;28;20031;-63
2022/04/28 04:14:49;;;;;;;30.42;14.95;;;;;;;3.69;100.00;102736.91;5106221;28;20053;-63
2022/04/28 04:17:15;;;;;;;30.48;14.85;;;;;;;3.64;100.00;102736.56;5105004;28;20427;-63
2022/04/28 04:19:40;;;;;;;28.58;14.55;;;;;;;3.57;100.00;102742.22;5103215;28;20474;-62
2022/04/28 04:22:06;;;;;;;26.83;14.30;;;;;;;3.59;100.00;102738.03;5105686;27;20088;-63
2022/04/28 04:24:31;;;;;;;29.52;15.45;;;;;;;3.65;100.00;102741.00;5103881;28;20074;-63
2022/04/28 04:26:57;;;;;;;28.80;15.40;;;;;;;3.70;100.00;102738.69;5105774;28;20063;-63
2022/04/28 04:29:23;;;;;;;30.88;15.40;;;;;;;3.70;100.00;102739.59;5103969;28;20035;-63
2022/04/28 04:34:32;;;;;;;28.05;14.82;;;;;;;3.75;100.00;102738.16;5105620;28;20398;-63
2022/04/28 04:36:58;;;;;;;30.95;15.43;;;;;;;3.82;100.00;102742.09;5104231;28;20023;-63
2022/04/28 04:39:23;;;;;;;30.15;15.68;;;;;;;3.83;100.00;102741.28;5104252;28;20055;-62
2022/04/28 04:41:48;;;;;;;31.05;15.35;;;;;;;3.91;100.00;102752.22;5106440;28;20462;-62
2022/04/28 04:44:14;;;;;;;32.13;15.90;;;;;;;3.91;100.00;102745.25;5102749;28;20051;-63
2022/04/28 04:46:41;;;;;;;30.23;15.38;;;;;;;3.91;100.00;102760.97;5106699;28;20034;-63
2022/04/28 04:49:07;;;;;;;28.88;15.23;;;;;;;3.94;100.00;102760.25;5102248;28;20024;-63
2022/04/28 04:51:32;;;;;;;27.55;15.10;;;;;;;3.90;100.00;102764.38;5105303;28;20028;-63
2022/04/28 04:53:57;;;;;;;28.95;14.95;;;;;;;4.01;100.00;102765.06;5104692;27;20030;-64
2022/04/28 04:56:23;;;;;;;28.40;15.20;;;;;;;4.00;100.00;102760.63;5103943;28;20032;-64
2022/04/28 04:58:48;;;;;;;27.20;14.63;;;;;;;4.07;100.00;102761.91;5105742;28;20016;-64
2022/04/28 05:01:13;;;;;;;28.92;15.27;;;;;;;4.09;100.00;102761.22;5102987;28;20031;-63
2022/04/28 05:03:40;;;;;;;30.05;15.73;;;;;;;4.11;100.00;102767.44;5105994;28;20019;-63
2022/04/28 05:06:06;;;;;;;30.10;16.05;;;;;;;4.10;100.00;102773.47;5103256;28;20024;-63
2022/04/28 05:08:31;;;;;;;30.63;15.10;;;;;;;4.11;100.00;102763.91;5105368;28;20466;-62
2022/04/28 05:10:57;;;;;;;29.67;16.20;;;;;;;4.16;100.00;102770.31;5100326;28;20024;-62
2022/04/28 05:13:22;;;;;;;30.50;15.85;;;;;;;4.23;100.00;102780.38;5105495;28;20027;-63
2022/04/28 05:15:48;;;;;;;33.38;15.82;;;;;;;4.25;100.00;102790.94;5103547;28;20115;-64
2022/04/28 05:18:14;;;;;;;31.45;17.05;;;;;;;4.29;100.00;102790.31;5102709;28;20390;-65
2022/04/28 05:20:39;;;;;;;30.20;16.27;;;;;;;4.35;100.00;102790.69;5104498;28;20092;-64
2022/04/28 05:23:04;;;;;;;31.48;16.70;;;;;;;4.41;100.00;102798.91;5104763;28;20031;-64
2022/04/28 05:25:30;;;;;;;31.13;16.15;;;;;;;4.40;100.00;102802.34;5102776;28;20035;-65
2022/04/28 05:27:56;;;;;;;32.05;16.85;;;;;;;4.48;100.00;102802.81;5105893;28;20023;-64
2022/04/28 05:30:22;;;;;;;30.50;16.00;;;;;;;4.50;100.00;102802.09;5102396;28;20039;-63
2022/04/28 05:32:47;;;;;;;31.58;16.30;;;;;;;4.52;100.00;102800.47;5104949;28;20058;-64
2022/04/28 05:35:13;;;;;;;29.85;16.23;;;;;;;4.62;100.00;102801.03;5103562;28;20051;-64
2022/04/28 05:37:39;;;;;;;33.05;17.13;;;;;;;4.69;100.00;102806.72;5101930;28;20068;-64
2022/04/28 05:40:07;;;;;;;31.60;16.20;;;;;;;4.78;100.00;102803.75;5102406;28;20437;-64
2022/04/28 05:48:00;;;;;;;32.17;17.65;;;;;;;4.99;100.00;102813.69;5105605;28;20165;-64
2022/04/28 05:50:26;;;;;;;31.80;17.40;;;;;;;5.07;100.00;102815.03;5102958;27;20106;-64
2022/04/28 05:52:51;;;;;;;32.00;16.70;;;;;;;5.16;100.00;102818.19;5103764;28;20027;-64
2022/04/28 05:55:17;;;;;;;32.40;17.83;;;;;;;5.23;100.00;102822.97;5103995;28;20023;-64
2022/04/28 05:57:42;;;;;;;31.75;17.80;;;;;;;5.29;100.00;102819.81;5101340;28;20035;-69
2022/04/28 06:00:08;;;;;;;33.72;17.63;;;;;;;5.35;100.00;102817.53;5105498;28;20423;-68
2022/04/28 06:02:34;;;;;;;32.70;17.17;;;;;;;5.45;100.00;102818.06;5105665;28;20067;-66
2022/04/28 06:05:00;;;;;;;32.30;16.73;;;;;;;5.52;100.00;102820.19;5112133;28;20549;-68
2022/04/28 06:07:26;;;;;;;34.15;17.70;;;;;;;5.61;100.00;102827.69;5112649;28;20032;-67
2022/04/28 06:09:51;;;;;;;30.58;17.63;;;;;;;5.70;100.00;102825.59;5112991;28;20027;-66
2022/04/28 06:12:17;;;;;;;31.75;17.63;;;;;;;5.77;100.00;102827.75;5112187;28;20051;-66
2022/04/28 06:14:42;;;;;;;31.83;17.50;;;;;;;5.76;100.00;102839.03;5112272;28;20090;-70
2022/04/28 06:17:08;;;;;;;31.58;17.38;;;;;;;5.86;100.00;102837.84;5112337;28;20016;-66
2022/04/28 06:19:33;;;;;;;34.15;17.77;;;;;;;5.89;100.00;102832.75;5110462;28;20027;-65
2022/04/28 06:21:59;;;;;;;33.03;17.35;;;;;;;5.89;100.00;102835.38;5112371;28;20028;-67
2022/04/28 06:24:25;;;;;;;32.00;17.38;;;;;;;5.94;100.00;102845.31;5111543;28;20478;-69
2022/04/28 06:26:51;;;;;;;34.38;16.95;;;;;;;6.02;100.00;102853.66;5108878;27;20414;-65
2022/04/28 06:29:16;;;;;;;33.60;17.58;;;;;;;6.07;100.00;102851.28;5112268;28;20057;-65
2022/04/28 06:31:42;;;;;;;31.40;16.77;;;;;;;6.14;100.00;102848.16;5108304;28;20047;-64
2022/04/28 06:34:07;;;;;;;29.17;16.15;;;;;;;6.21;100.00;102850.31;5111051;28;20055;-64
2022/04/28 06:36:34;;;;;;;31.85;16.83;;;;;;;6.32;100.00;102845.66;5112807;27;20388;-65
2022/04/28 06:39:00;;;;;;;31.20;16.92;;;;;;;6.46;100.00;102851.63;5112681;28;20020;-63
2022/04/28 06:41:25;;;;;;;30.27;16.08;;;;;;;6.57;100.00;102850.47;5110787;28;20034;-65
2022/04/28 06:43:51;;;;;;;31.73;16.05;;;;;;;6.68;100.00;102852.75;5111659;28;20077;-65
2022/04/28 06:46:16;;;;;;;30.52;16.17;;;;;;;6.79;100.00;102854.22;5112002;28;20019;-64
2022/04/28 06:48:41;;;;;;;30.08;16.27;;;;;;;6.91;100.00;102846.97;5112162;28;20027;-65
2022/04/28 06:51:07;;;;;;;31.13;15.45;;;;;;;6.95;100.00;102864.69;5112055;28;20024;-65
2022/04/28 06:53:32;;;;;;;31.50;16.40;;;;;;;7.05;100.00;102862.53;5106751;28;20126;-64
2022/04/28 06:55:58;;;;;;;28.70;14.60;;;;;;;7.17;100.00;102860.53;5107592;28;20089;-64
2022/04/28 06:58:24;;;;;;;29.70;15.65;;;;;;;7.23;100.00;102863.47;5111731;28;20152;-63
2022/04/28 07:00:49;;;;;;;31.20;15.82;;;;;;;7.36;100.00;102866.72;5111791;28;20358;-64
2022/04/28 07:03:15;;;;;;;31.52;15.32;;;;;;;7.43;100.00;102874.09;5112659;28;20016;-64
2022/04/28 07:05:41;;;;;;;31.65;15.40;;;;;;;7.51;100.00;102870.09;5111948;28;20115;-65
2022/04/28 07:08:07;;;;;;;28.13;14.30;;;;;;;7.54;100.00;102872.88;5111588;28;20406;-63
2022/04/28 07:10:33;;;;;;;30.73;14.80;;;;;;;7.61;100.00;102882.88;5112246;28;20440;-64
2022/04/28 07:12:58;;;;;;;31.77;15.40;;;;;;;7.66;100.00;102885.78;5111881;28;20054;-64
2022/04/28 07:15:23;;;;;;;28.15;13.95;;;;;;;7.72;100.00;102886.06;5111704;28;20451;-63
2022/04/28 07:17:49;;;;;;;31.33;16.02;;;;;;;7.84;100.00;102896.28;5116550;28;20019;-63
2022/04/28 07:20:14;;;;;;;32.50;15.50;;;;;;;7.91;100.00;102892.22;5115541;28;20385;-63
2022/04/28 07:22:40;;;;;;;30.55;15.48;;;;;;;7.97;100.00;102893.41;5116138;28;20111;-64
2022/04/28 07:25:06;;;;;;;29.92;15.15;;;;;;;8.05;100.00;102895.50;5114296;28;20031;-63
2022/04/28 07:27:31;;;;;;;30.02;15.05;;;;;;;8.11;100.00;102891.44;5115200;28;20084;-64
2022/04/28 07:29:56;;;;;;;30.50;15.23;;;;;;;8.17;100.00;102896.97;5115249;28;20421;-64
2022/04/28 07:32:22;;;;;;;28.48;14.90;;;;;;;8.26;100.00;102898.25;5115426;28;20031;-73
2022/04/28 07:34:47;;;;;;;31.17;15.13;;;;;;;8.33;100.00;102902.94;5113283;28;20028;-66
2022/04/28 07:37:13;;;;;;;32.33;15.07;;;;;;;8.43;100.00;102912.19;5115972;27;20050;-70
2022/04/28 07:39:38;;;;;;;28.52;15.23;;;;;;;8.48;100.00;102918.63;5115136;28;20027;-70
2022/04/28 07:42:03;;;;;;;34.58;15.40;;;;;;;8.62;100.00;102911.31;5115653;28;20507;-70
2022/04/28 07:44:29;;;;;;;29.35;13.82;;;;;;;8.65;100.00;102917.66;5114627;28;20048;-70
2022/04/28 07:46:56;;;;;;;28.42;14.15;;;;;;;8.70;100.00;102923.13;5114810;27;20058;-70
2022/04/28 07:49:21;;;;;;;30.40;14.43;;;;;;;8.76;100.00;102920.75;5115098;28;20489;-67
2022/04/28 07:51:47;;;;;;;31.83;15.20;;;;;;;8.79;100.00;102915.63;5115293;28;20164;-66
2022/04/28 07:54:12;;;;;;;30.17;14.98;;;;;;;8.93;100.00;102918.88;5113085;28;20398;-65
2022/04/28 07:56:37;;;;;;;30.25;15.13;;;;;;;9.06;100.00;102928.25;5112409;28;20110;-65
2022/04/28 07:59:03;;;;;;;29.98;15.30;;;;;;;9.08;100.00;102929.19;5110518;28;20028;-64
2022/04/28 08:01:31;;;;;;;29.88;15.18;;;;;;;9.18;99.57;102930.50;5106077;28;20150;-65
2022/04/28 08:03:56;;;;;;;30.90;14.80;;;;;;;9.28;98.83;102935.34;5101592;28;20032;-65
2022/04/28 08:06:23;;;;;;;28.77;13.68;;;;;;;9.42;96.64;102925.34;5106084;28;20016;-64
2022/04/28 08:08:48;;;;;;;29.15;13.68;;;;;;;9.56;94.90;102939.16;5105772;28;20023;-66
2022/04/28 08:11:14;;;;;;;28.75;13.52;;;;;;;9.73;92.54;102924.03;5103392;28;20016;-63
2022/04/28 08:13:39;;;;;;;27.70;12.82;;;;;;;10.18;87.84;102939.91;5107090;28;20106;-64
2022/04/28 08:16:04;;;;;;;26.30;12.55;;;;;;;10.98;84.81;102942.06;5102523;28;20032;-64
2022/04/28 08:18:30;;;;;;;27.70;13.13;;;;;;;11.83;81.07;102936.97;5106853;28;20076;-65
2022/04/28 08:20:55;;;;;;;28.40;12.88;;;;;;;12.56;76.01;102946.31;5104393;28;20077;-67
2022/04/28 08:23:21;;;;;;;27.60;12.20;;;;;;;12.98;70.74;102947.53;5103445;28;20115;-66
2022/04/28 08:25:46;;;;;;;26.67;11.85;;;;;;;13.67;67.81;102947.56;5105793;28;20026;-66
2022/04/28 08:28:12;;;;;;;26.80;12.05;;;;;;;13.85;65.55;102937.41;5104790;28;20034;-64
2022/04/28 08:30:38;;;;;;;25.38;11.48;;;;;;;14.15;62.32;102954.91;5103591;28;20062;-65
2022/04/28 08:33:04;;;;;;;25.83;11.45;;;;;;;14.32;59.94;102946.44;5103179;28;20038;-64
2022/04/28 08:35:29;;;;;;;26.50;11.07;;;;;;;14.35;58.75;102951.81;5102536;28;20070;-68
2022/04/28 08:37:55;;;;;;;25.35;10.85;;;;;;;14.66;57.26;102950.72;5105774;28;20028;-69
2022/04/28 08:40:21;;;;;;;25.95;11.32;;;;;;;14.91;56.90;102954.81;5103759;28;20035;-70
2022/04/28 08:42:48;;;;;;;25.95;11.63;;;;;;;15.36;55.93;102949.41;5106622;28;20035;-65
2022/04/28 08:45:17;;;;;;;25.85;10.95;;;;;;;15.58;54.51;102948.00;5102982;28;20048;-68
2022/04/28 08:47:46;;;;;;;24.70;10.60;;;;;;;15.94;54.67;102946.84;5102936;28;20375;-69
2022/04/28 08:50:11;;;;;;;24.40;11.18;;;;;;;16.19;52.49;102938.34;5106290;28;20592;-66
2022/04/28 08:52:37;;;;;;;25.23;11.30;;;;;;;16.65;50.58;102951.38;5103709;28;20098;-67
2022/04/28 08:55:03;;;;;;;25.80;11.40;;;;;;;16.98;49.31;102951.78;5105100;28;20119;-65
2022/04/28 08:57:30;;;;;;;24.52;11.45;;;;;;;17.30;47.74;102953.91;5104636;28;20124;-65
2022/04/28 08:59:56;;;;;;;24.35;11.40;;;;;;;17.58;44.47;102952.38;5103860;28;20470;-65
2022/04/28 09:02:31;;;;;;;25.27;11.65;;;;;;;17.70;44.66;102948.91;5105779;28;20059;-67
2022/04/28 09:05:04;;;;;;;27.33;11.95;;;;;;;17.76;42.30;102949.84;5104345;28;20382;-66
2022/04/28 09:07:37;;;;;;;26.38;11.77;;;;;;;18.00;42.59;102956.31;5104681;27;20157;-65
2022/04/28 09:10:32;;;;;;;27.13;11.77;;;;;;;17.76;44.91;102960.53;5104551;28;20058;-65
2022/04/28 09:15:51;;;;;;;24.73;11.82;;;;;;;16.41;44.98;102951.06;5102951;28;20122;-65
2022/04/28 09:18:18;;;;;;;26.17;11.98;;;;;;;16.71;44.22;102943.44;5106004;28;20027;-65
2022/04/28 09:20:45;;;;;;;23.55;11.55;;;;;;;17.83;42.49;102944.56;5102658;28;20038;-66
2022/04/28 09:23:12;;;;;;;24.45;11.35;;;;;;;18.57;38.99;102942.34;5105362;28;20051;-65
2022/04/28 09:25:42;;;;;;;23.85;11.18;;;;;;;19.26;39.25;102942.53;5103006;28;20474;-66
2022/04/28 09:28:12;;;;;;;23.80;11.13;;;;;;;19.53;36.66;102946.16;5104139;28;20137;-65
2022/04/28 09:30:45;;;;;;;26.05;12.05;;;;;;;20.07;35.97;102938.06;5099469;28;20111;-66
2022/04/28 09:33:13;;;;;;;25.35;11.30;;;;;;;20.56;34.72;102945.03;5102854;27;20444;-67
2022/04/28 09:35:52;;;;;;;24.20;11.63;;;;;;;21.09;34.13;102934.06;5103076;28;20530;-65
2022/04/28 09:38:18;;;;;;;25.58;11.00;;;;;;;21.23;33.97;102938.44;5101681;28;20031;-64
2022/04/28 09:43:32;;;;;;;25.35;10.98;;;;;;;21.86;31.86;102934.34;5102896;28;20505;-66
2022/04/28 09:45:58;;;;;;;23.42;10.40;;;;;;;22.24;30.32;102930.31;5105179;28;20563;-65
2022/04/28 09:48:29;;;;;;;23.60;10.25;;;;;;;21.99;31.02;102936.88;5101868;28;20024;-65
2022/04/28 09:51:07;;;;;;;21.85;9.80;;;;;;;22.41;30.47;102929.25;5101932;28;20027;-64
2022/04/28 09:53:35;;;;;;;23.38;9.60;;;;;;;22.96;29.35;102933.91;5102585;28;20066;-65
2022/04/28 09:56:02;;;;;;;23.38;9.27;;;;;;;23.08;29.45;102931.91;5104999;28;20043;-67
2022/04/28 09:58:29;;;;;;;22.52;9.52;;;;;;;23.66;28.22;102931.00;5101627;28;20035;-66
2022/04/28 10:01:05;;;;;;;22.63;9.90;;;;;;;23.14;28.67;102931.88;5101786;28;20024;-65
2022/04/28 10:03:33;;;;;;;22.02;9.80;;;;;;;23.74;27.36;102928.16;5104670;28;20458;-66
2022/04/28 10:06:02;;;;;;;23.33;9.43;;;;;;;24.25;27.12;102919.09;5101479;28;20076;-65
2022/04/28 10:08:30;;;;;;;21.85;8.77;;;;;;;24.29;26.35;102914.50;5101665;28;20421;-65
2022/04/28 10:10:56;;;;;;;23.52;9.20;;;;;;;24.47;25.23;102918.66;5101706;28;20062;-67
2022/04/28 10:13:23;;;;;;;21.98;9.23;;;;;;;24.55;26.32;102911.25;5104461;28;20024;-65
2022/04/28 10:15:57;;;;;;;22.08;9.32;;;;;;;24.42;27.26;102916.06;5102255;28;20387;-66
2022/04/28 10:18:29;;;;;;;22.77;9.32;;;;;;;24.90;25.87;102923.09;5104866;28;20023;-66
2022/04/28 10:21:00;;;;;;;22.17;9.65;;;;;;;25.38;24.85;102908.44;5101544;28;20028;-66
2022/04/28 10:34:53;;;;;;;23.65;9.60;;;;;;;26.24;23.47;102910.63;5101624;28;20046;-67
2022/04/28 10:37:23;;;;;;;23.20;9.38;;;;;;;25.89;24.19;102897.16;5101893;28;20378;-65
2022/04/28 10:39:55;;;;;;;22.30;10.05;;;;;;;25.47;24.56;102893.78;5103780;28;20020;-66
2022/04/28 10:42:26;;;;;;;21.45;9.30;;;;;;;25.12;25.43;102903.66;5101887;28;20023;-64
2022/04/28 10:44:54;;;;;;;21.95;10.23;;;;;;;26.08;24.20;102897.56;5104196;28;20045;-68
2022/04/28 10:47:36;;;;;;;22.17;10.38;;;;;;;27.19;24.08;102900.47;5101457;28;20070;-65
2022/04/28 10:50:04;;;;;;;22.42;9.77;;;;;;;27.55;22.93;102898.38;5103231;28;20024;-65
2022/04/28 10:52:30;;;;;;;21.58;9.30;;;;;;;28.43;21.34;102892.41;5108619;28;20522;-65
2022/04/28 10:55:01;;;;;;;23.42;10.10;;;;;;;28.63;21.90;102893.47;5105349;28;20123;-66
2022/04/28 10:57:31;;;;;;;22.00;10.05;;;;;;;28.87;21.43;102899.78;5105147;28;20051;-65
2022/04/28 10:59:57;;;;;;;22.50;10.20;;;;;;;28.78;19.89;102892.00;5105009;28;20428;-65
2022/04/28 11:02:23;;;;;;;21.10;9.60;;;;;;;29.09;19.93;102891.59;5108487;28;20091;-65
2022/04/28 11:05:00;;;;;;;22.25;9.43;;;;;;;29.17;20.41;102886.72;5105787;28;20032;-64
2022/04/28 11:07:29;;;;;;;22.92;10.40;;;;;;;28.87;20.90;102887.03;5105387;28;20055;-64
2022/04/28 11:10:00;;;;;;;21.00;9.45;;;;;;;28.84;20.73;102887.19;5108552;28;20431;-65
2022/04/28 11:12:33;;;;;;;22.88;9.80;;;;;;;28.75;21.42;102892.13;5106367;28;20020;-67
2022/04/28 11:15:08;;;;;;;22.23;9.75;;;;;;;29.04;20.85;102888.19;5113242;28;20054;-70
2022/04/28 11:17:38;;;;;;;22.77;10.10;;;;;;;29.70;19.87;102876.28;5112774;28;20112;-69
2022/04/28 11:20:12;;;;;;;22.60;9.80;;;;;;;30.00;19.22;102873.13;5115900;28;20019;-70
2022/04/28 11:22:41;;;;;;;21.63;10.05;;;;;;;30.50;19.89;102874.47;5115787;28;20028;-69
2022/04/28 11:25:12;;;;;;;21.58;10.20;;;;;;;30.62;19.64;102875.72;5115536;28;20024;-69
2022/04/28 11:27:38;;;;;;;23.85;11.10;;;;;;;30.45;18.07;102873.81;5114050;28;20038;-70
2022/04/28 11:30:04;;;;;;;22.58;10.57;;;;;;;30.23;19.77;102872.06;5107690;28;20027;-66
2022/04/28 11:32:29;;;;;;;22.65;10.40;;;;;;;29.76;19.92;102866.97;5105561;28;20031;-65
2022/04/28 11:34:58;;;;;;;22.52;10.35;;;;;;;29.51;19.66;102870.78;5112962;28;20023;-65
2022/04/28 11:37:26;;;;;;;21.30;10.15;;;;;;;30.39;18.92;102870.41;5111851;28;20035;-65
2022/04/28 11:39:53;;;;;;;21.35;10.05;;;;;;;29.52;19.48;102870.72;5115016;28;20019;-65
2022/04/28 11:42:19;;;;;;;23.63;10.93;;;;;;;29.53;19.73;102866.16;5106495;28;20016;-66
2022/04/28 11:44:46;;;;;;;22.73;10.73;;;;;;;30.40;19.43;102866.69;5106489;28;20489;-66